Terminal Aerodrome Forecast
Issued by NWS Omaha/Valley, NE

Home | Current Version | Previous Version | Text Only | Print | Product List | Glossary On
Versions: 1 2 3 4 5 6 7 8 9 10 11 12 13 14 15 16 17 18 19 20 21 22 23 24 25 26 27 28 29 30 31 32 33 34 35 36 37 38 39 40 41 42
000
FTUS43 KOAX 200302 AAB
TAFOFK
TAF AMD
KOFK 200302Z 2003/2024 18012KT P6SM SCT030 BKN150
      TEMPO 2004/2007 VRB15G25KT 3SM TSRA BKN030CB
     FM200700 25007KT P6SM -SHRA BKN050
      TEMPO 2007/2010 4SM TSRA BKN030CB
     FM201000 30010KT P6SM SCT030 BKN250
     FM201600 32011KT P6SM SCT100=

USA.gov is the U.S. government's official web portal to all federal, state and local government web resources and services.